Time;durP1;ratioP1;P1;durP2;ratioP2;P2;SDS_P1;SDS_P2;PMS_P1;PMS_P2;Temp;Humidity;BMP_temperature;BMP_pressure;BME280_temperature;BME280_humidity;BME280_pressure;Samples;Min_cycle;Max_cycle;Signal;HPM_P1;HPM_P2
2023/04/25 00:01:09;;;;;;;13.40;2.47;;;7.00;99.90;;;;;;4039056;29;20491;-85
2023/04/25 00:03:09;;;;;;;21.70;3.88;;;7.00;99.90;;;;;;4056745;29;20049;-84
2023/04/25 00:05:10;;;;;;;14.10;3.58;;;7.10;99.90;;;;;;4056859;29;20127;-83
2023/04/25 00:07:12;;;;;;;10.73;2.70;;;7.00;99.90;;;;;;4038943;29;20438;-85
2023/04/25 00:09:15;;;;;;;16.00;2.30;;;7.00;99.90;;;;;;4040673;29;20060;-84
2023/04/25 00:11:16;;;;;;;20.23;3.65;;;7.30;99.90;;;;;;4023821;29;20106;-85
2023/04/25 00:13:17;;;;;;;23.27;3.85;;;7.00;99.90;;;;;;4025041;29;20069;-85
2023/04/25 00:15:19;;;;;;;16.33;2.65;;;7.10;99.90;;;;;;4055735;29;20131;-85
2023/04/25 00:17:24;;;;;;;15.68;2.15;;;7.00;99.90;;;;;;4055394;29;20043;-85
2023/04/25 00:19:26;;;;;;;14.50;3.42;;;6.90;99.90;;;;;;4040136;29;20060;-84
2023/04/25 00:21:28;;;;;;;16.70;3.95;;;6.90;99.90;;;;;;4055570;29;20599;-85
2023/04/25 00:23:28;;;;;;;17.00;3.95;;;6.90;99.90;;;;;;4024385;29;20026;-84
2023/04/25 00:25:29;;;;;;;18.08;2.55;;;6.90;99.90;;;;;;4023925;29;20064;-84
2023/04/25 00:27:30;;;;;;;13.95;3.28;;;7.40;99.90;;;;;;4056498;29;20128;-84
2023/04/25 00:29:31;;;;;;;8.98;2.63;;;6.90;99.90;;;;;;4023186;29;20132;-84
2023/04/25 00:31:32;;;;;;;10.07;2.00;;;6.80;99.90;;;;;;4023643;29;20060;-84
2023/04/25 00:33:33;;;;;;;6.85;1.63;;;6.80;99.90;;;;;;4039522;29;20502;-84
2023/04/25 00:35:35;;;;;;;19.15;3.53;;;7.30;99.90;;;;;;4056815;29;20409;-84
2023/04/25 00:37:38;;;;;;;15.05;2.40;;;6.60;99.90;;;;;;4056809;29;20040;-84
2023/04/25 00:39:39;;;;;;;16.17;3.08;;;6.60;99.90;;;;;;4039507;29;20063;-85
2023/04/25 00:41:41;;;;;;;9.35;2.22;;;6.60;99.90;;;;;;4056677;29;20378;-85
2023/04/25 00:43:45;;;;;;;11.70;2.88;;;6.60;99.90;;;;;;4055569;29;20040;-85
2023/04/25 00:45:48;;;;;;;12.77;2.60;;;7.10;99.90;;;;;;4054995;29;20056;-84
2023/04/25 00:47:50;;;;;;;9.23;2.75;;;6.60;99.90;;;;;;4040059;29;20059;-84
2023/04/25 00:49:53;;;;;;;7.60;1.50;;;7.10;99.90;;;;;;4055493;29;20040;-85
2023/04/25 00:51:56;;;;;;;13.23;1.65;;;6.60;99.90;;;;;;4051786;29;20100;-85
2023/04/25 00:53:59;;;;;;;13.02;2.38;;;7.10;99.90;;;;;;4055804;29;20052;-84
2023/04/25 00:56:00;;;;;;;15.73;2.90;;;6.50;99.90;;;;;;4039801;29;20060;-84
2023/04/25 00:58:00;;;;;;;12.27;1.63;;;6.60;99.90;;;;;;4038865;29;20495;-85
2023/04/25 01:00:02;;;;;;;15.98;1.75;;;6.60;99.90;;;;;;4023652;29;20049;-84
2023/04/25 01:02:05;;;;;;;11.02;1.60;;;6.50;99.90;;;;;;4039921;29;20049;-85
2023/04/25 01:04:06;;;;;;;11.05;1.65;;;6.50;99.90;;;;;;4055524;29;20040;-84
2023/04/25 01:06:09;;;;;;;8.27;1.20;;;6.50;99.90;;;;;;4040048;29;20053;-84
2023/04/25 01:08:11;;;;;;;11.25;2.88;;;7.00;99.90;;;;;;4031660;29;20135;-84
2023/04/25 01:10:12;;;;;;;10.32;1.88;;;6.90;99.90;;;;;;4024451;29;20064;-84
2023/04/25 01:12:14;;;;;;;8.93;2.15;;;6.50;99.90;;;;;;4040146;29;20049;-84
2023/04/25 01:14:16;;;;;;;14.80;3.00;;;6.50;99.90;;;;;;4040618;29;20072;-84
2023/04/25 01:16:18;;;;;;;10.05;2.15;;;6.50;99.90;;;;;;4034099;29;20056;-84
2023/04/25 01:18:20;;;;;;;12.57;2.20;;;6.50;99.90;;;;;;4055540;29;20486;-85
2023/04/25 01:20:26;;;;;;;11.68;2.05;;;6.50;99.90;;;;;;4056230;29;20100;-84
2023/04/25 01:22:27;;;;;;;23.58;3.13;;;6.40;99.90;;;;;;4055247;29;20044;-84
2023/04/25 01:24:31;;;;;;;14.68;2.05;;;6.70;99.90;;;;;;4038264;29;20033;-84
2023/04/25 01:26:33;;;;;;;8.20;1.65;;;6.50;99.90;;;;;;4038243;29;20052;-85
2023/04/25 01:28:34;;;;;;;16.02;3.50;;;6.40;99.90;;;;;;4055487;29;20123;-85
2023/04/25 01:30:37;;;;;;;12.20;2.45;;;7.10;99.90;;;;;;4039234;29;20047;-84
2023/04/25 01:32:39;;;;;;;15.88;3.42;;;6.50;99.90;;;;;;4038156;29;20098;-84
2023/04/25 01:34:40;;;;;;;10.30;1.92;;;6.90;99.90;;;;;;4055175;29;20040;-85
2023/04/25 01:36:41;;;;;;;13.57;2.42;;;5.90;99.90;;;;;;4038724;29;20057;-84
2023/04/25 01:38:43;;;;;;;9.93;1.50;;;6.40;99.90;;;;;;4055229;29;20048;-84
2023/04/25 01:40:46;;;;;;;9.95;1.40;;;6.90;99.90;;;;;;4055442;29;20048;-84
2023/04/25 01:42:48;;;;;;;9.95;1.95;;;6.90;99.90;;;;;;4053590;29;20068;-84
2023/04/25 01:44:50;;;;;;;13.43;3.03;;;6.40;99.90;;;;;;4043709;29;20135;-83
2023/04/25 01:46:52;;;;;;;17.30;3.35;;;6.30;99.90;;;;;;4023137;29;20053;-84
2023/04/25 01:48:52;;;;;;;12.93;2.28;;;6.40;99.90;;;;;;4008281;29;20042;-84
2023/04/25 01:50:54;;;;;;;17.42;2.08;;;5.60;99.90;;;;;;4040215;29;20048;-83
2023/04/25 01:52:56;;;;;;;15.05;1.95;;;6.30;99.90;;;;;;4039512;29;20513;-83
2023/04/25 01:55:01;;;;;;;12.13;2.17;;;6.40;99.90;;;;;;4007975;29;20062;-83
2023/04/25 01:57:01;;;;;;;12.48;1.95;;;6.40;99.90;;;;;;4039995;29;20592;-84
2023/04/25 01:59:04;;;;;;;10.10;2.22;;;5.60;99.90;;;;;;4023798;29;20054;-84
2023/04/25 02:01:06;;;;;;;15.38;2.13;;;6.40;99.90;;;;;;4054076;29;20047;-84
2023/04/25 02:03:08;;;;;;;9.73;2.47;;;6.40;99.90;;;;;;4038537;29;20124;-84
2023/04/25 02:05:09;;;;;;;15.88;2.30;;;6.90;99.90;;;;;;4023085;29;20053;-84
2023/04/25 02:07:10;;;;;;;10.55;2.63;;;6.30;99.90;;;;;;4055478;29;20226;-84
2023/04/25 02:09:11;;;;;;;16.05;2.53;;;;;;;;;;4055129;29;20052;-84
2023/04/25 02:11:12;;;;;;;16.50;2.42;;;6.30;99.90;;;;;;4037648;29;20446;-84
2023/04/25 02:13:13;;;;;;;9.07;1.90;;;6.30;99.90;;;;;;4055082;29;20064;-84
2023/04/25 02:15:14;;;;;;;17.98;2.28;;;6.20;99.90;;;;;;4052756;29;20053;-84
2023/04/25 02:17:16;;;;;;;14.60;2.40;;;6.10;99.90;;;;;;4039667;29;20152;-84
2023/04/25 02:19:17;;;;;;;12.95;3.15;;;;;;;;;;4038588;29;20056;-84
2023/04/25 02:21:19;;;;;;;12.57;2.83;;;6.10;99.90;;;;;;4055397;29;20040;-84
2023/04/25 02:23:20;;;;;;;14.70;2.45;;;6.00;99.90;;;;;;4038535;29;20053;-84
2023/04/25 02:25:22;;;;;;;16.20;3.30;;;6.00;99.90;;;;;;4054637;29;20044;-85
2023/04/25 02:27:23;;;;;;;12.80;3.03;;;6.00;99.90;;;;;;4039137;29;20497;-84
2023/04/25 02:29:25;;;;;;;11.98;1.65;;;5.90;99.90;;;;;;4037935;29;20090;-84
2023/04/25 02:31:25;;;;;;;5.32;1.33;;;5.90;99.90;;;;;;4038825;29;20052;-84
2023/04/25 02:33:28;;;;;;;10.00;2.00;;;5.90;99.90;;;;;;4044981;29;20512;-84
2023/04/25 02:35:30;;;;;;;16.73;1.60;;;5.90;99.90;;;;;;4054238;29;20100;-84
2023/04/25 02:37:31;;;;;;;8.48;2.13;;;5.90;99.90;;;;;;4054895;29;20028;-84
2023/04/25 02:39:33;;;;;;;18.85;2.72;;;5.90;99.90;;;;;;4055064;29;20537;-83
2023/04/25 02:41:37;;;;;;;7.55;1.67;;;5.90;99.90;;;;;;4039317;29;20060;-83
2023/04/25 02:43:37;;;;;;;10.45;1.65;;;5.90;99.90;;;;;;4023459;29;20045;-83
2023/04/25 02:45:39;;;;;;;9.10;1.60;;;6.60;99.90;;;;;;4054903;29;20051;-83
2023/04/25 02:47:41;;;;;;;13.35;2.40;;;5.90;99.90;;;;;;4023533;29;20057;-84
2023/04/25 02:49:42;;;;;;;8.85;1.40;;;6.30;99.90;;;;;;4051480;29;20168;-84
2023/04/25 02:51:45;;;;;;;15.80;2.83;;;5.90;99.90;;;;;;4039666;29;20041;-84
2023/04/25 02:53:48;;;;;;;6.60;1.33;;;6.80;99.90;;;;;;4008120;29;20061;-84
2023/04/25 02:55:49;;;;;;;5.05;1.23;;;5.90;99.90;;;;;;4017700;29;20057;-84
2023/04/25 02:57:51;;;;;;;6.95;1.77;;;5.90;99.90;;;;;;4011715;29;20110;-84
2023/04/25 02:59:55;;;;;;;14.82;2.30;;;5.90;99.90;;;;;;4026444;29;20536;-85
2023/04/25 03:02:02;;;;;;;8.48;1.42;;;5.90;99.90;;;;;;4042608;29;20052;-84
2023/04/25 03:04:03;;;;;;;13.10;1.83;;;5.90;99.90;;;;;;4058535;29;20104;-85
2023/04/25 03:06:07;;;;;;;9.35;2.28;;;5.90;99.90;;;;;;4058655;29;20120;-84
2023/04/25 03:08:08;;;;;;;10.15;1.45;;;6.00;99.90;;;;;;4024684;29;20053;-84
2023/04/25 03:10:09;;;;;;;7.72;1.75;;;6.60;99.90;;;;;;4057916;29;20045;-83
2023/04/25 03:12:11;;;;;;;13.85;2.38;;;5.90;99.90;;;;;;4058285;29;20055;-84
2023/04/25 03:14:12;;;;;;;9.55;1.67;;;6.90;99.90;;;;;;4034932;29;20571;-83
2023/04/25 03:16:14;;;;;;;7.90;1.67;;;6.90;99.90;;;;;;4049442;29;20375;-84
2023/04/25 03:18:17;;;;;;;8.60;2.00;;;5.80;99.90;;;;;;4026596;29;20054;-84
2023/04/25 03:20:17;;;;;;;10.20;2.50;;;5.80;99.90;;;;;;4043753;29;20045;-84
2023/04/25 03:22:19;;;;;;;6.90;1.40;;;6.30;99.90;;;;;;4057465;29;20164;-83
2023/04/25 03:24:21;;;;;;;12.93;1.88;;;5.70;99.90;;;;;;4074162;29;20485;-84
2023/04/25 03:26:23;;;;;;;11.10;1.70;;;5.60;99.90;;;;;;4044509;29;20076;-84
2023/04/25 03:28:25;;;;;;;16.58;1.70;;;5.60;99.90;;;;;;4041829;29;20498;-84
2023/04/25 03:30:26;;;;;;;7.20;1.55;;;5.50;99.90;;;;;;4023979;29;20062;-84
2023/04/25 03:32:26;;;;;;;13.70;1.38;;;5.40;99.90;;;;;;4053164;29;20430;-84
2023/04/25 03:34:29;;;;;;;13.50;1.35;;;5.50;99.90;;;;;;4057819;29;20096;-84
2023/04/25 03:36:30;;;;;;;14.00;1.65;;;5.40;99.90;;;;;;4022840;29;20072;-84
2023/04/25 03:38:31;;;;;;;10.70;2.45;;;5.30;99.90;;;;;;4009959;29;20057;-84
2023/04/25 03:40:32;;;;;;;12.90;2.60;;;5.20;99.90;;;;;;4010607;29;20483;-85
2023/04/25 03:42:33;;;;;;;12.93;1.70;;;5.30;99.90;;;;;;4041689;29;20116;-84
2023/04/25 03:44:34;;;;;;;5.13;1.52;;;5.20;99.90;;;;;;4041637;29;20041;-83
2023/04/25 03:46:36;;;;;;;8.40;1.63;;;5.10;99.90;;;;;;4024839;29;20065;-84
2023/04/25 03:48:39;;;;;;;7.65;1.20;;;5.10;99.90;;;;;;4024586;29;20153;-84
2023/04/25 03:50:39;;;;;;;10.95;1.75;;;6.40;99.90;;;;;;4039170;29;20088;-85
2023/04/25 03:52:40;;;;;;;10.63;1.40;;;5.10;99.90;;;;;;4030915;29;20406;-85
2023/04/25 03:54:41;;;;;;;8.35;1.92;;;5.10;99.90;;;;;;4042983;29;20060;-84
2023/04/25 03:56:42;;;;;;;9.68;1.50;;;5.10;99.90;;;;;;4015360;29;20506;-85
2023/04/25 03:58:44;;;;;;;11.63;1.85;;;5.10;99.90;;;;;;4042749;29;20050;-85
2023/04/25 04:00:46;;;;;;;15.10;2.15;;;5.10;99.90;;;;;;4026578;29;20050;-85
2023/04/25 04:02:47;;;;;;;8.57;1.83;;;5.10;99.90;;;;;;4011021;29;20586;-85
2023/04/25 04:04:49;;;;;;;6.80;1.08;;;5.10;99.90;;;;;;4010867;29;20069;-84
2023/04/25 04:06:52;;;;;;;6.68;1.38;;;5.00;99.90;;;;;;4025870;29;20057;-84
2023/04/25 04:08:53;;;;;;;10.85;1.45;;;5.00;99.90;;;;;;4031500;29;20057;-85
2023/04/25 04:10:54;;;;;;;9.98;1.55;;;4.70;99.90;;;;;;4041610;29;20120;-85
2023/04/25 04:12:55;;;;;;;11.05;1.48;;;4.90;99.90;;;;;;4026088;29;20484;-84
2023/04/25 04:14:58;;;;;;;12.10;1.85;;;4.80;99.90;;;;;;4041245;29;20065;-84
2023/04/25 04:17:00;;;;;;;9.85;1.90;;;5.00;99.90;;;;;;4067820;29;20129;-84
2023/04/25 04:19:02;;;;;;;10.77;1.50;;;4.80;99.90;;;;;;4057327;29;20053;-83
2023/04/25 04:21:02;;;;;;;8.82;2.08;;;4.80;99.90;;;;;;4072957;29;20124;-84
2023/04/25 04:23:05;;;;;;;10.88;1.90;;;4.70;99.90;;;;;;4072207;29;20040;-83
2023/04/25 04:25:06;;;;;;;9.35;1.27;;;4.60;99.90;;;;;;4055953;29;20065;-85
2023/04/25 04:27:07;;;;;;;8.45;1.77;;;4.60;99.90;;;;;;4072456;29;20051;-85
2023/04/25 04:29:10;;;;;;;12.00;3.38;;;4.60;99.90;;;;;;4072600;29;20044;-85
2023/04/25 04:31:12;;;;;;;7.07;1.20;;;4.60;99.90;;;;;;4044226;29;20128;-84
2023/04/25 04:33:18;;;;;;;9.85;1.65;;;4.60;99.90;;;;;;4040913;29;20411;-83
2023/04/25 04:35:22;;;;;;;16.73;2.38;;;3.40;99.90;;;;;;4039919;29;20056;-83
2023/04/25 04:37:24;;;;;;;9.80;2.13;;;5.40;99.90;;;;;;4048901;29;20108;-84
2023/04/25 04:39:25;;;;;;;7.43;1.35;;;4.50;99.90;;;;;;4025425;29;20068;-83
2023/04/25 04:41:28;;;;;;;7.25;1.20;;;5.90;99.90;;;;;;4057414;29;20128;-84
2023/04/25 04:43:33;;;;;;;8.93;1.20;;;4.50;99.90;;;;;;4025197;29;20049;-82
2023/04/25 04:45:34;;;;;;;7.40;2.00;;;4.50;99.90;;;;;;4056674;29;20066;-84
2023/04/25 04:47:36;;;;;;;9.10;2.03;;;4.40;99.90;;;;;;4057686;29;20554;-84
2023/04/25 04:49:38;;;;;;;11.35;1.50;;;4.50;99.90;;;;;;4028220;29;20154;-83
2023/04/25 04:51:40;;;;;;;10.55;1.55;;;4.90;99.90;;;;;;4015957;29;20085;-84
2023/04/25 04:53:42;;;;;;;6.63;1.13;;;5.80;99.90;;;;;;4025234;29;20057;-83
2023/04/25 04:55:43;;;;;;;6.80;1.20;;;4.60;99.90;;;;;;4012252;29;20175;-85
2023/04/25 04:57:45;;;;;;;5.38;1.35;;;5.00;99.90;;;;;;4031129;29;20074;-84
2023/04/25 04:59:47;;;;;;;9.43;2.00;;;5.90;99.90;;;;;;4040651;29;20331;-84
2023/04/25 05:01:48;;;;;;;6.30;1.20;;;4.70;99.90;;;;;;4040473;29;20081;-84
2023/04/25 05:03:52;;;;;;;7.63;1.30;;;5.10;99.90;;;;;;4027183;29;20506;-84
2023/04/25 05:05:53;;;;;;;9.93;1.10;;;4.80;99.90;;;;;;4056981;29;20119;-85
2023/04/25 05:07:55;;;;;;;8.48;0.95;;;4.80;99.90;;;;;;4025586;29;20060;-85
2023/04/25 05:09:57;;;;;;;7.82;0.93;;;4.80;99.90;;;;;;4009947;29;20527;-85
2023/04/25 05:12:00;;;;;;;3.17;1.05;;;4.80;99.90;;;;;;4057739;29;20113;-85
2023/04/25 05:14:01;;;;;;;4.88;1.45;;;6.30;99.90;;;;;;4035533;29;20062;-85
2023/04/25 05:16:03;;;;;;;7.88;1.88;;;4.90;99.90;;;;;;4025664;29;20052;-85
2023/04/25 05:18:05;;;;;;;1.83;0.80;;;4.90;99.90;;;;;;4040582;29;20041;-84
2023/04/25 05:20:11;;;;;;;5.32;0.68;;;6.20;99.90;;;;;;4025639;29;20598;-85
2023/04/25 05:22:13;;;;;;;2.58;0.55;;;5.00;99.90;;;;;;4041289;29;20406;-84
2023/04/25 05:24:15;;;;;;;2.20;0.77;;;5.10;99.90;;;;;;4040903;29;20045;-85
2023/04/25 05:26:16;;;;;;;3.33;0.90;;;5.00;99.90;;;;;;4032755;29;20057;-84
2023/04/25 05:28:18;;;;;;;1.70;0.60;;;5.00;99.90;;;;;;4039309;29;20144;-85
2023/04/25 05:30:20;;;;;;;3.78;0.70;;;6.20;99.90;;;;;;4057828;29;20044;-85
2023/04/25 05:32:22;;;;;;;5.25;0.52;;;5.00;99.90;;;;;;4056435;29;20044;-83
2023/04/25 05:34:30;;;;;;;2.90;0.70;;;5.00;99.90;;;;;;4056022;29;20052;-85
2023/04/25 05:36:32;;;;;;;2.17;0.60;;;5.00;99.90;;;;;;4057571;29;20126;-85
2023/04/25 05:38:34;;;;;;;2.65;0.90;;;5.10;99.90;;;;;;4056158;29;20044;-84
2023/04/25 05:40:35;;;;;;;8.98;1.50;;;5.20;99.90;;;;;;4057774;29;20079;-85
2023/04/25 05:42:36;;;;;;;5.65;1.00;;;5.20;99.90;;;;;;4040077;29;20053;-83
2023/04/25 05:44:37;;;;;;;2.83;0.77;;;6.50;99.90;;;;;;4058072;29;20075;-84
2023/04/25 05:46:39;;;;;;;9.30;0.82;;;5.20;99.90;;;;;;4050068;29;20041;-83
2023/04/25 05:48:40;;;;;;;4.72;1.00;;;5.40;99.90;;;;;;4009709;29;20164;-83
2023/04/25 05:50:41;;;;;;;5.25;0.80;;;6.60;99.90;;;;;;4026308;29;20468;-83
2023/04/25 05:52:44;;;;;;;4.75;0.95;;;5.30;99.90;;;;;;4024292;29;20050;-84
2023/04/25 05:54:46;;;;;;;8.70;1.20;;;5.40;99.90;;;;;;4042120;29;20442;-84
2023/04/25 05:56:50;;;;;;;7.82;0.80;;;5.40;99.90;;;;;;4040935;29;20049;-84
2023/04/25 05:58:50;;;;;;;8.88;1.10;;;5.40;99.90;;;;;;4024823;29;20140;-84
2023/04/25 06:00:51;;;;;;;5.10;1.50;;;5.40;99.90;;;;;;4009692;29;20503;-84
2023/04/25 06:02:53;;;;;;;9.38;3.28;;;5.30;99.90;;;;;;4016017;29;20050;-84
2023/04/25 06:04:54;;;;;;;5.43;1.50;;;5.40;99.90;;;;;;4040284;29;20144;-85
2023/04/25 06:06:55;;;;;;;8.68;2.10;;;5.50;99.90;;;;;;4055692;29;20498;-85
2023/04/25 06:08:57;;;;;;;7.20;1.00;;;5.50;99.90;;;;;;4056384;29;20053;-85
2023/04/25 06:10:59;;;;;;;10.10;1.52;;;5.60;99.90;;;;;;4039625;29;20049;-84
2023/04/25 06:13:00;;;;;;;5.65;0.80;;;5.30;99.90;;;;;;4025890;29;20114;-85
2023/04/25 06:15:02;;;;;;;4.07;1.08;;;5.70;99.90;;;;;;4057024;29;20100;-85
2023/04/25 06:17:08;;;;;;;7.10;1.63;;;5.00;99.90;;;;;;4040840;29;20418;-86
2023/04/25 06:19:09;;;;;;;2.30;0.50;;;6.80;99.90;;;;;;4027668;29;20067;-86
2023/04/25 06:21:12;;;;;;;3.13;0.52;;;5.80;99.90;;;;;;4056238;29;20048;-85
2023/04/25 06:23:17;;;;;;;3.55;0.68;;;5.90;99.90;;;;;;4073123;29;20165;-84
2023/04/25 06:25:22;;;;;;;5.20;0.57;;;6.00;99.90;;;;;;4054526;29;20131;-85
2023/04/25 06:27:26;;;;;;;4.18;0.52;;;6.00;99.90;;;;;;4055510;29;20048;-83
2023/04/25 06:29:29;;;;;;;2.80;0.68;;;6.20;99.90;;;;;;4058372;29;20052;-83
2023/04/25 06:31:32;;;;;;;3.75;0.43;;;6.30;99.90;;;;;;4042556;29;20081;-84
2023/04/25 06:33:33;;;;;;;5.70;0.80;;;7.20;99.90;;;;;;4060595;29;20052;-83
2023/04/25 06:35:34;;;;;;;5.82;1.25;;;5.40;99.90;;;;;;4043620;29;20451;-84
2023/04/25 06:37:35;;;;;;;3.70;1.02;;;6.70;99.90;;;;;;4043308;29;20174;-84
2023/04/25 06:39:36;;;;;;;7.95;1.88;;;6.90;99.90;;;;;;4058700;29;20044;-83
2023/04/25 06:41:38;;;;;;;5.70;1.20;;;7.10;99.90;;;;;;4026885;29;20046;-84
2023/04/25 06:43:40;;;;;;;7.57;1.50;;;7.40;99.90;;;;;;4027948;29;20478;-84
2023/04/25 06:45:42;;;;;;;8.70;1.60;;;7.50;99.90;;;;;;4031541;29;20490;-84
2023/04/25 06:47:43;;;;;;;8.98;1.35;;;7.70;99.90;;;;;;4069991;29;20036;-85
2023/04/25 06:49:45;;;;;;;11.93;1.48;;;7.80;99.90;;;;;;4043620;29;20048;-86
2023/04/25 06:51:46;;;;;;;9.70;1.15;;;7.90;99.90;;;;;;4065251;29;20557;-87
2023/04/25 06:53:46;;;;;;;5.50;1.00;;;8.10;99.90;;;;;;4058158;29;20477;-87
2023/04/25 06:55:47;;;;;;;9.75;1.40;;;8.10;99.90;;;;;;4058670;29;20426;-85
2023/04/25 06:57:49;;;;;;;7.90;0.90;;;8.10;99.90;;;;;;4054801;29;20120;-85
2023/04/25 06:59:50;;;;;;;6.93;0.88;;;8.00;99.90;;;;;;4041696;29;20156;-85
2023/04/25 07:01:51;;;;;;;5.65;1.05;;;7.80;99.90;;;;;;4057503;29;20056;-84
2023/04/25 07:03:52;;;;;;;6.30;2.10;;;7.70;99.90;;;;;;4058832;29;20040;-85
2023/04/25 07:05:54;;;;;;;6.55;1.45;;;7.60;99.90;;;;;;4059121;29;20513;-85
2023/04/25 07:07:55;;;;;;;8.60;1.10;;;7.70;99.90;;;;;;4058206;29;20413;-86
2023/04/25 07:09:58;;;;;;;4.38;0.80;;;7.70;99.90;;;;;;4042046;29;20053;-85
2023/04/25 07:12:01;;;;;;;14.20;2.50;;;8.00;99.90;;;;;;4059522;29;20052;-85
2023/04/25 07:14:03;;;;;;;3.38;0.98;;;7.80;99.90;;;;;;4057917;29;20052;-85
2023/04/25 07:16:04;;;;;;;8.07;1.30;;;7.90;99.90;;;;;;4059526;29;20081;-85
2023/04/25 07:18:05;;;;;;;8.30;1.65;;;7.70;99.90;;;;;;4039069;29;20170;-85
2023/04/25 07:20:07;;;;;;;3.50;0.77;;;8.10;99.90;;;;;;4039663;29;20510;-85
2023/04/25 07:22:09;;;;;;;3.22;0.95;;;8.20;99.90;;;;;;4001329;29;20054;-86
2023/04/25 07:24:10;;;;;;;5.95;0.93;;;8.30;99.90;;;;;;4042576;29;20125;-86
2023/04/25 07:26:11;;;;;;;14.05;1.05;;;8.40;99.90;;;;;;4043179;29;20406;-87
2023/04/25 07:28:15;;;;;;;11.18;1.67;;;8.50;99.90;;;;;;4011034;29;20516;-84
2023/04/25 07:30:16;;;;;;;5.30;0.95;;;8.60;99.90;;;;;;4043358;29;20454;-85
2023/04/25 07:32:19;;;;;;;3.90;0.80;;;8.60;99.90;;;;;;4041596;29;20470;-85
2023/04/25 07:34:20;;;;;;;4.53;0.93;;;8.70;99.90;;;;;;4022687;29;20041;-85
2023/04/25 07:36:22;;;;;;;7.68;0.93;;;8.70;99.90;;;;;;4012335;29;20064;-84
2023/04/25 07:38:23;;;;;;;11.77;1.98;;;8.70;99.90;;;;;;4040230;29;20557;-84
2023/04/25 07:40:24;;;;;;;4.68;0.63;;;8.60;99.90;;;;;;4025860;29;20037;-84
2023/04/25 07:42:26;;;;;;;10.27;0.80;;;8.60;99.90;;;;;;4012908;29;20053;-83
2023/04/25 07:44:27;;;;;;;8.82;0.98;;;8.60;99.90;;;;;;4042762;29;20402;-84
2023/04/25 07:46:29;;;;;;;11.70;1.00;;;8.50;99.90;;;;;;4025599;29;20053;-84
2023/04/25 07:48:30;;;;;;;7.05;1.50;;;8.50;99.90;;;;;;4043302;29;20077;-85
2023/04/25 07:50:31;;;;;;;6.22;1.52;;;8.50;99.90;;;;;;4026060;29;20050;-85
2023/04/25 07:52:36;;;;;;;4.13;0.70;;;8.40;99.90;;;;;;4025606;29;20084;-84
2023/04/25 07:54:37;;;;;;;4.63;0.75;;;8.50;99.90;;;;;;4041523;29;20123;-85
2023/04/25 07:56:38;;;;;;;10.07;1.08;;;8.60;99.90;;;;;;4013904;29;20053;-84
2023/04/25 07:58:39;;;;;;;3.40;0.80;;;8.50;99.90;;;;;;4031263;29;20090;-85
2023/04/25 08:00:41;;;;;;;6.85;0.90;;;8.70;99.90;;;;;;3995621;29;20471;-86
2023/04/25 08:02:42;;;;;;;6.10;1.35;;;8.80;99.90;;;;;;4027682;29;20041;-85
2023/04/25 08:04:43;;;;;;;5.78;1.08;;;9.10;99.90;;;;;;4042859;29;20089;-85
2023/04/25 08:06:45;;;;;;;4.63;0.70;;;9.40;99.90;;;;;;4041638;29;20425;-84
2023/04/25 08:08:48;;;;;;;3.83;0.52;;;9.40;99.90;;;;;;4042890;29;20049;-85
2023/04/25 08:10:50;;;;;;;4.13;0.60;;;9.40;99.90;;;;;;4025608;29;20049;-85
2023/04/25 08:12:51;;;;;;;4.63;0.68;;;9.10;99.90;;;;;;4029983;29;20129;-85
2023/04/25 08:14:53;;;;;;;2.03;0.70;;;8.70;99.90;;;;;;4057422;29;20071;-85
2023/04/25 08:16:53;;;;;;;7.57;0.68;;;8.30;99.90;;;;;;4058098;29;20172;-85
2023/04/25 08:18:55;;;;;;;7.55;1.50;;;8.00;99.90;;;;;;4025130;29;20049;-85
2023/04/25 08:20:58;;;;;;;6.10;0.93;;;7.80;99.90;;;;;;4025960;29;20057;-84
2023/04/25 08:22:59;;;;;;;3.38;0.68;;;8.20;99.90;;;;;;4041580;29;20053;-85
2023/04/25 08:25:00;;;;;;;6.53;0.50;;;7.50;99.90;;;;;;4041447;29;20057;-85
2023/04/25 08:27:02;;;;;;;1.15;0.60;;;7.80;99.90;;;;;;4026680;29;20286;-85
2023/04/25 08:29:06;;;;;;;6.22;1.13;;;7.30;99.90;;;;;;4057693;29;20040;-86
2023/04/25 08:31:06;;;;;;;3.75;0.57;;;7.20;99.90;;;;;;4060224;29;20081;-85
2023/04/25 08:33:07;;;;;;;4.13;0.57;;;7.30;99.90;;;;;;4039514;29;20045;-82
2023/04/25 08:35:08;;;;;;;5.28;0.60;;;7.30;99.90;;;;;;4038659;29;20057;-83
2023/04/25 08:37:10;;;;;;;3.42;0.90;;;7.50;99.90;;;;;;4009564;29;20045;-84
2023/04/25 08:39:11;;;;;;;4.07;1.50;;;7.60;99.90;;;;;;4040502;29;20057;-83
2023/04/25 08:41:13;;;;;;;5.25;1.27;;;7.70;99.90;;;;;;4041202;29;20059;-83
2023/04/25 08:43:15;;;;;;;2.83;0.60;;;7.80;99.90;;;;;;4040870;29;20482;-82
2023/04/25 08:45:15;;;;;;;4.85;0.93;;;8.00;99.90;;;;;;4024136;29;20061;-84
2023/04/25 08:47:18;;;;;;;3.55;0.47;;;;;;;;;;4008682;29;20058;-83
2023/04/25 08:49:21;;;;;;;3.60;0.63;;;7.60;99.90;;;;;;4033626;29;20125;-83
2023/04/25 08:51:27;;;;;;;6.97;1.67;;;8.60;99.90;;;;;;4035872;29;20060;-83
2023/04/25 08:53:33;;;;;;;3.92;0.65;;;8.90;99.90;;;;;;4022636;29;20056;-83
2023/04/25 08:55:37;;;;;;;3.20;0.35;;;;;;;;;;4024001;29;20048;-83
2023/04/25 08:57:42;;;;;;;7.18;1.35;;;;;;;;;;4038988;29;20092;-83
2023/04/25 08:59:45;;;;;;;1.33;0.40;;;9.50;99.90;;;;;;4055994;29;20076;-83
2023/04/25 09:01:48;;;;;;;3.17;1.20;;;10.40;99.90;;;;;;4055723;29;20092;-83
2023/04/25 09:03:50;;;;;;;9.10;0.70;;;10.70;99.90;;;;;;4055080;29;20053;-82
2023/04/25 09:05:53;;;;;;;6.22;1.13;;;11.10;99.90;;;;;;4040652;29;20505;-84
2023/04/25 09:07:56;;;;;;;7.28;1.02;;;11.50;99.90;;;;;;4035513;29;20091;-85
2023/04/25 09:10:01;;;;;;;8.40;0.98;;;11.60;99.90;;;;;;4054599;29;20565;-83
2023/04/25 09:12:02;;;;;;;9.15;1.00;;;11.50;99.90;;;;;;4023304;29;20507;-85
2023/04/25 09:14:16;;;;;;;4.82;1.33;;;11.30;99.90;;;;;;4023284;29;20053;-84
2023/04/25 09:16:21;;;;;;;5.35;0.80;;;11.10;99.90;;;;;;4062439;29;20048;-85
2023/04/25 09:18:29;;;;;;;5.50;1.40;;;11.20;99.90;;;;;;4038393;29;20045;-85
2023/04/25 09:20:30;;;;;;;3.85;1.13;;;11.60;99.90;;;;;;4037280;29;20059;-85
2023/04/25 09:22:32;;;;;;;6.57;1.20;;;12.10;99.90;;;;;;4054993;29;20528;-85
2023/04/25 09:24:45;;;;;;;5.40;0.90;;;12.30;99.90;;;;;;4050156;29;20052;-84
2023/04/25 09:26:47;;;;;;;3.90;0.98;;;12.20;99.90;;;;;;4047499;29;20060;-86
2023/04/25 09:28:48;;;;;;;4.45;1.75;;;11.70;99.90;;;;;;4040360;29;20060;-84
2023/04/25 09:30:49;;;;;;;5.70;0.70;;;11.20;99.90;;;;;;4039410;29;20045;-84
2023/04/25 09:32:55;;;;;;;4.13;1.35;;;10.80;99.90;;;;;;4023520;29;20407;-85
2023/04/25 09:34:57;;;;;;;6.10;1.38;;;10.60;99.90;;;;;;4038205;29;20057;-85
2023/04/25 09:37:01;;;;;;;5.07;1.33;;;9.90;99.90;;;;;;4038943;29;20495;-85
2023/04/25 09:39:03;;;;;;;8.77;2.33;;;10.50;99.90;;;;;;4038795;29;20053;-85
2023/04/25 09:41:05;;;;;;;11.45;1.20;;;10.90;99.90;;;;;;4038991;29;20447;-85
2023/04/25 09:43:22;;;;;;;9.35;1.58;;;11.40;99.90;;;;;;4011561;29;20531;-85
2023/04/25 09:45:25;;;;;;;7.65;2.03;;;10.70;99.90;;;;;;4041813;29;20060;-83
2023/04/25 09:47:28;;;;;;;5.88;1.00;;;12.60;99.90;;;;;;4054727;29;20057;-85
2023/04/25 09:49:28;;;;;;;8.35;0.93;;;13.00;99.90;;;;;;4054291;29;20123;-84
2023/04/25 09:51:30;;;;;;;7.28;0.80;;;13.30;99.90;;;;;;4037866;29;20045;-85
2023/04/25 09:53:31;;;;;;;5.70;0.90;;;13.30;99.90;;;;;;4054841;29;20429;-87
2023/04/25 09:55:35;;;;;;;5.95;0.68;;;13.50;99.90;;;;;;4048596;29;20120;-84
2023/04/25 09:57:39;;;;;;;6.22;1.98;;;13.90;99.90;;;;;;4040747;29;20049;-86
2023/04/25 09:59:54;;;;;;;8.55;1.20;;;13.90;99.90;;;;;;4039019;29;20049;-86
2023/04/25 10:01:56;;;;;;;9.43;1.30;;;13.60;99.90;;;;;;4042680;29;20074;-86
2023/04/25 10:03:58;;;;;;;7.28;0.90;;;13.50;99.90;;;;;;4039372;29;20539;-87
2023/04/25 10:06:01;;;;;;;12.43;1.30;;;13.60;99.90;;;;;;4042246;29;20090;-87
2023/04/25 10:08:05;;;;;;;10.50;1.10;;;13.50;99.90;;;;;;4040648;29;20064;-87
2023/04/25 10:10:06;;;;;;;6.15;0.70;;;13.60;99.90;;;;;;4038603;29;20116;-86
2023/04/25 10:12:07;;;;;;;1.63;0.52;;;13.40;99.90;;;;;;4022431;29;20090;-86
2023/04/25 10:14:09;;;;;;;3.78;0.73;;;12.70;99.90;;;;;;4039571;29;20072;-85
2023/04/25 10:16:10;;;;;;;3.58;0.80;;;12.20;99.90;;;;;;4023105;29;20061;-86
2023/04/25 10:18:11;;;;;;;2.70;0.95;;;11.60;99.90;;;;;;4007860;29;20085;-87
2023/04/25 10:20:14;;;;;;;4.57;0.80;;;10.90;99.90;;;;;;4023637;29;20056;-86
2023/04/25 10:22:20;;;;;;;5.65;0.90;;;10.80;99.90;;;;;;4040862;29;20478;-85
2023/04/25 10:24:21;;;;;;;7.63;1.25;;;10.40;99.90;;;;;;4008344;29;20062;-85
2023/04/25 10:26:22;;;;;;;10.32;2.00;;;10.30;99.90;;;;;;4023541;29;20426;-85
2023/04/25 10:28:23;;;;;;;8.02;1.42;;;10.20;99.90;;;;;;4041228;29;20045;-85
2023/04/25 10:30:23;;;;;;;5.85;1.08;;;10.20;99.90;;;;;;4043795;29;20501;-85
2023/04/25 10:32:24;;;;;;;3.35;0.80;;;10.40;99.90;;;;;;4047310;29;20553;-87
2023/04/25 10:34:41;;;;;;;5.88;1.15;;;10.80;99.90;;;;;;4054609;29;20084;-84
2023/04/25 10:36:42;;;;;;;7.25;2.33;;;10.40;99.90;;;;;;4054323;29;20087;-87
2023/04/25 10:38:47;;;;;;;4.75;1.13;;;12.10;99.90;;;;;;4023128;29;20053;-83
2023/04/25 10:41:10;;;;;;;4.45;1.08;;;12.70;99.90;;;;;;4038563;29;20088;-85